sensor_id;sensor_type;location;lat;lon;timestamp;P1;durP1;ratioP1;P2;durP2;ratioP2
49730;SDS011;35622;52.008;5.426;2023-04-03T00:00:48;4.00;;;1.10;;
49730;SDS011;35622;52.008;5.426;2023-04-03T00:03:14;3.53;;;1.37;;
49730;SDS011;35622;52.008;5.426;2023-04-03T00:05:40;4.13;;;1.50;;
49730;SDS011;35622;52.008;5.426;2023-04-03T00:08:06;5.70;;;1.50;;
49730;SDS011;35622;52.008;5.426;2023-04-03T00:10:34;4.50;;;1.20;;
49730;SDS011;35622;52.008;5.426;2023-04-03T00:13:01;4.00;;;1.70;;
49730;SDS011;35622;52.008;5.426;2023-04-03T00:15:27;2.60;;;1.20;;
49730;SDS011;35622;52.008;5.426;2023-04-03T00:17:52;2.20;;;1.27;;
49730;SDS011;35622;52.008;5.426;2023-04-03T00:20:18;3.23;;;1.33;;
49730;SDS011;35622;52.008;5.426;2023-04-03T00:22:43;3.10;;;1.57;;
49730;SDS011;35622;52.008;5.426;2023-04-03T00:25:09;4.53;;;1.43;;
49730;SDS011;35622;52.008;5.426;2023-04-03T00:27:38;2.17;;;1.23;;
49730;SDS011;35622;52.008;5.426;2023-04-03T00:30:05;1.70;;;1.20;;
49730;SDS011;35622;52.008;5.426;2023-04-03T00:32:33;2.47;;;1.30;;
49730;SDS011;35622;52.008;5.426;2023-04-03T00:34:59;4.07;;;1.27;;
49730;SDS011;35622;52.008;5.426;2023-04-03T00:37:25;4.50;;;1.50;;
49730;SDS011;35622;52.008;5.426;2023-04-03T00:39:50;3.60;;;1.27;;
49730;SDS011;35622;52.008;5.426;2023-04-03T00:42:16;2.57;;;1.50;;
49730;SDS011;35622;52.008;5.426;2023-04-03T00:47:08;4.90;;;1.50;;
49730;SDS011;35622;52.008;5.426;2023-04-03T00:49:38;3.97;;;1.43;;
49730;SDS011;35622;52.008;5.426;2023-04-03T00:52:08;2.00;;;1.27;;
49730;SDS011;35622;52.008;5.426;2023-04-03T00:54:39;1.87;;;1.20;;
49730;SDS011;35622;52.008;5.426;2023-04-03T00:57:06;3.80;;;1.60;;
49730;SDS011;35622;52.008;5.426;2023-04-03T00:59:34;3.87;;;1.30;;
49730;SDS011;35622;52.008;5.426;2023-04-03T01:02:03;1.77;;;1.17;;
49730;SDS011;35622;52.008;5.426;2023-04-03T01:04:30;3.00;;;1.07;;
49730;SDS011;35622;52.008;5.426;2023-04-03T01:06:57;2.83;;;1.30;;
49730;SDS011;35622;52.008;5.426;2023-04-03T01:09:44;3.40;;;1.50;;
49730;SDS011;35622;52.008;5.426;2023-04-03T01:12:16;2.73;;;1.37;;
49730;SDS011;35622;52.008;5.426;2023-04-03T01:14:42;2.27;;;1.30;;
49730;SDS011;35622;52.008;5.426;2023-04-03T01:22:43;2.63;;;1.40;;
49730;SDS011;35622;52.008;5.426;2023-04-03T01:25:12;2.37;;;1.37;;
49730;SDS011;35622;52.008;5.426;2023-04-03T01:27:38;2.40;;;1.40;;
49730;SDS011;35622;52.008;5.426;2023-04-03T01:30:03;4.20;;;1.50;;
49730;SDS011;35622;52.008;5.426;2023-04-03T01:32:30;2.83;;;1.60;;
49730;SDS011;35622;52.008;5.426;2023-04-03T01:34:56;4.13;;;1.37;;
49730;SDS011;35622;52.008;5.426;2023-04-03T01:37:21;3.03;;;1.50;;
49730;SDS011;35622;52.008;5.426;2023-04-03T01:39:47;1.80;;;1.30;;
49730;SDS011;35622;52.008;5.426;2023-04-03T01:42:12;3.07;;;1.30;;
49730;SDS011;35622;52.008;5.426;2023-04-03T01:44:38;2.37;;;1.43;;
49730;SDS011;35622;52.008;5.426;2023-04-03T01:47:05;3.03;;;1.53;;
49730;SDS011;35622;52.008;5.426;2023-04-03T01:49:32;4.43;;;1.60;;
49730;SDS011;35622;52.008;5.426;2023-04-03T01:51:57;3.10;;;1.30;;
49730;SDS011;35622;52.008;5.426;2023-04-03T01:54:23;2.67;;;1.40;;
49730;SDS011;35622;52.008;5.426;2023-04-03T01:56:49;2.70;;;1.30;;
49730;SDS011;35622;52.008;5.426;2023-04-03T01:59:14;2.80;;;1.37;;
49730;SDS011;35622;52.008;5.426;2023-04-03T02:01:41;2.20;;;1.40;;
49730;SDS011;35622;52.008;5.426;2023-04-03T02:04:08;4.97;;;1.57;;
49730;SDS011;35622;52.008;5.426;2023-04-03T02:06:34;6.27;;;1.53;;
49730;SDS011;35622;52.008;5.426;2023-04-03T02:09:00;3.27;;;1.50;;
49730;SDS011;35622;52.008;5.426;2023-04-03T02:11:25;4.47;;;1.73;;
49730;SDS011;35622;52.008;5.426;2023-04-03T02:13:51;4.47;;;1.80;;
49730;SDS011;35622;52.008;5.426;2023-04-03T02:16:16;3.37;;;1.80;;
49730;SDS011;35622;52.008;5.426;2023-04-03T02:18:42;4.90;;;1.80;;
49730;SDS011;35622;52.008;5.426;2023-04-03T02:21:07;2.33;;;1.20;;
49730;SDS011;35622;52.008;5.426;2023-04-03T02:23:33;3.73;;;1.60;;
49730;SDS011;35622;52.008;5.426;2023-04-03T02:26:05;3.00;;;1.50;;
49730;SDS011;35622;52.008;5.426;2023-04-03T02:28:32;4.17;;;1.50;;
49730;SDS011;35622;52.008;5.426;2023-04-03T02:30:58;3.17;;;1.77;;
49730;SDS011;35622;52.008;5.426;2023-04-03T02:33:24;5.60;;;1.73;;
49730;SDS011;35622;52.008;5.426;2023-04-03T02:35:53;5.27;;;1.50;;
49730;SDS011;35622;52.008;5.426;2023-04-03T02:38:20;3.80;;;1.80;;
49730;SDS011;35622;52.008;5.426;2023-04-03T02:40:46;5.03;;;1.70;;
49730;SDS011;35622;52.008;5.426;2023-04-03T02:43:12;4.43;;;1.80;;
49730;SDS011;35622;52.008;5.426;2023-04-03T02:45:37;2.67;;;1.67;;
49730;SDS011;35622;52.008;5.426;2023-04-03T02:48:03;4.27;;;2.10;;
49730;SDS011;35622;52.008;5.426;2023-04-03T02:50:29;3.10;;;1.90;;
49730;SDS011;35622;52.008;5.426;2023-04-03T02:52:54;3.77;;;1.60;;
49730;SDS011;35622;52.008;5.426;2023-04-03T02:55:20;5.80;;;1.50;;
49730;SDS011;35622;52.008;5.426;2023-04-03T02:57:46;2.80;;;1.60;;
49730;SDS011;35622;52.008;5.426;2023-04-03T03:00:11;3.03;;;1.60;;
49730;SDS011;35622;52.008;5.426;2023-04-03T03:02:37;2.50;;;1.47;;
49730;SDS011;35622;52.008;5.426;2023-04-03T03:05:03;2.80;;;1.73;;
49730;SDS011;35622;52.008;5.426;2023-04-03T03:07:29;3.67;;;1.57;;
49730;SDS011;35622;52.008;5.426;2023-04-03T03:09:55;4.27;;;1.50;;
49730;SDS011;35622;52.008;5.426;2023-04-03T03:12:20;2.80;;;1.33;;
49730;SDS011;35622;52.008;5.426;2023-04-03T03:14:47;3.67;;;1.80;;
49730;SDS011;35622;52.008;5.426;2023-04-03T03:17:13;1.97;;;1.23;;
49730;SDS011;35622;52.008;5.426;2023-04-03T03:19:38;3.77;;;1.83;;
49730;SDS011;35622;52.008;5.426;2023-04-03T03:22:04;1.90;;;1.40;;
49730;SDS011;35622;52.008;5.426;2023-04-03T03:24:30;3.37;;;1.60;;
49730;SDS011;35622;52.008;5.426;2023-04-03T03:26:55;3.13;;;1.47;;
49730;SDS011;35622;52.008;5.426;2023-04-03T03:29:21;5.23;;;1.50;;
49730;SDS011;35622;52.008;5.426;2023-04-03T03:31:46;2.37;;;1.40;;
49730;SDS011;35622;52.008;5.426;2023-04-03T03:34:12;3.13;;;1.57;;
49730;SDS011;35622;52.008;5.426;2023-04-03T03:36:37;4.53;;;1.60;;
49730;SDS011;35622;52.008;5.426;2023-04-03T03:39:03;2.77;;;1.30;;
49730;SDS011;35622;52.008;5.426;2023-04-03T03:41:29;2.83;;;1.60;;
49730;SDS011;35622;52.008;5.426;2023-04-03T03:43:54;2.90;;;1.33;;
49730;SDS011;35622;52.008;5.426;2023-04-03T03:46:20;2.23;;;1.47;;
49730;SDS011;35622;52.008;5.426;2023-04-03T03:48:46;3.33;;;2.00;;
49730;SDS011;35622;52.008;5.426;2023-04-03T03:51:11;2.93;;;1.70;;
49730;SDS011;35622;52.008;5.426;2023-04-03T03:53:37;4.23;;;1.90;;
49730;SDS011;35622;52.008;5.426;2023-04-03T03:56:03;2.43;;;1.53;;
49730;SDS011;35622;52.008;5.426;2023-04-03T03:58:29;2.67;;;1.60;;
49730;SDS011;35622;52.008;5.426;2023-04-03T04:00:55;3.83;;;1.40;;
49730;SDS011;35622;52.008;5.426;2023-04-03T04:03:20;3.83;;;1.77;;
49730;SDS011;35622;52.008;5.426;2023-04-03T04:05:46;3.00;;;1.57;;
49730;SDS011;35622;52.008;5.426;2023-04-03T04:08:12;5.03;;;1.87;;
49730;SDS011;35622;52.008;5.426;2023-04-03T04:10:37;2.93;;;1.40;;
49730;SDS011;35622;52.008;5.426;2023-04-03T04:13:03;4.37;;;1.43;;
49730;SDS011;35622;52.008;5.426;2023-04-03T04:15:29;4.07;;;1.80;;
49730;SDS011;35622;52.008;5.426;2023-04-03T04:17:55;6.70;;;1.70;;
49730;SDS011;35622;52.008;5.426;2023-04-03T04:20:22;4.53;;;1.63;;
49730;SDS011;35622;52.008;5.426;2023-04-03T04:22:47;3.83;;;1.60;;
49730;SDS011;35622;52.008;5.426;2023-04-03T04:25:13;4.07;;;1.60;;
49730;SDS011;35622;52.008;5.426;2023-04-03T04:27:38;5.93;;;2.80;;
49730;SDS011;35622;52.008;5.426;2023-04-03T04:30:04;5.53;;;2.93;;
49730;SDS011;35622;52.008;5.426;2023-04-03T04:32:31;4.47;;;2.60;;
49730;SDS011;35622;52.008;5.426;2023-04-03T04:34:56;3.83;;;2.40;;
49730;SDS011;35622;52.008;5.426;2023-04-03T04:37:22;4.40;;;2.10;;
49730;SDS011;35622;52.008;5.426;2023-04-03T04:39:47;5.07;;;1.93;;
49730;SDS011;35622;52.008;5.426;2023-04-03T04:42:13;5.03;;;1.90;;
49730;SDS011;35622;52.008;5.426;2023-04-03T04:44:39;3.33;;;1.80;;
49730;SDS011;35622;52.008;5.426;2023-04-03T04:47:04;1.97;;;1.47;;
49730;SDS011;35622;52.008;5.426;2023-04-03T04:49:30;3.70;;;1.63;;
49730;SDS011;35622;52.008;5.426;2023-04-03T04:51:55;4.93;;;2.60;;
49730;SDS011;35622;52.008;5.426;2023-04-03T04:54:21;5.60;;;3.00;;
49730;SDS011;35622;52.008;5.426;2023-04-03T04:56:47;19.93;;;7.97;;
49730;SDS011;35622;52.008;5.426;2023-04-03T04:59:12;19.97;;;9.23;;
49730;SDS011;35622;52.008;5.426;2023-04-03T05:01:38;12.07;;;7.20;;
49730;SDS011;35622;52.008;5.426;2023-04-03T05:04:06;9.67;;;5.10;;
49730;SDS011;35622;52.008;5.426;2023-04-03T05:06:37;11.63;;;5.63;;
49730;SDS011;35622;52.008;5.426;2023-04-03T05:09:03;11.27;;;6.10;;
49730;SDS011;35622;52.008;5.426;2023-04-03T05:11:28;11.57;;;6.07;;
49730;SDS011;35622;52.008;5.426;2023-04-03T05:13:54;7.23;;;4.43;;
49730;SDS011;35622;52.008;5.426;2023-04-03T05:16:20;7.60;;;3.50;;
49730;SDS011;35622;52.008;5.426;2023-04-03T05:18:45;7.93;;;2.60;;
49730;SDS011;35622;52.008;5.426;2023-04-03T05:21:11;5.23;;;2.47;;
49730;SDS011;35622;52.008;5.426;2023-04-03T05:23:36;6.87;;;2.77;;
49730;SDS011;35622;52.008;5.426;2023-04-03T05:26:02;3.80;;;2.40;;
49730;SDS011;35622;52.008;5.426;2023-04-03T05:28:28;7.63;;;2.70;;
49730;SDS011;35622;52.008;5.426;2023-04-03T05:30:54;3.30;;;2.23;;
49730;SDS011;35622;52.008;5.426;2023-04-03T05:33:23;4.30;;;2.40;;
49730;SDS011;35622;52.008;5.426;2023-04-03T05:35:51;8.00;;;2.53;;
49730;SDS011;35622;52.008;5.426;2023-04-03T05:38:16;5.47;;;2.37;;
49730;SDS011;35622;52.008;5.426;2023-04-03T05:40:42;3.37;;;2.23;;
49730;SDS011;35622;52.008;5.426;2023-04-03T05:43:08;6.20;;;2.30;;
49730;SDS011;35622;52.008;5.426;2023-04-03T05:45:33;6.50;;;2.03;;
49730;SDS011;35622;52.008;5.426;2023-04-03T05:47:59;6.60;;;2.67;;
49730;SDS011;35622;52.008;5.426;2023-04-03T05:50:25;7.40;;;2.43;;
49730;SDS011;35622;52.008;5.426;2023-04-03T05:52:50;3.30;;;1.90;;
49730;SDS011;35622;52.008;5.426;2023-04-03T05:55:19;5.27;;;2.20;;
49730;SDS011;35622;52.008;5.426;2023-04-03T05:57:46;7.40;;;2.37;;
49730;SDS011;35622;52.008;5.426;2023-04-03T06:00:13;6.30;;;2.27;;
49730;SDS011;35622;52.008;5.426;2023-04-03T06:02:42;5.07;;;2.13;;
49730;SDS011;35622;52.008;5.426;2023-04-03T06:05:08;6.17;;;2.70;;
49730;SDS011;35622;52.008;5.426;2023-04-03T06:07:36;5.13;;;2.27;;
49730;SDS011;35622;52.008;5.426;2023-04-03T06:10:02;4.10;;;2.00;;
49730;SDS011;35622;52.008;5.426;2023-04-03T06:12:28;8.43;;;3.27;;
49730;SDS011;35622;52.008;5.426;2023-04-03T06:14:54;14.27;;;5.47;;
49730;SDS011;35622;52.008;5.426;2023-04-03T06:17:20;13.83;;;6.80;;
49730;SDS011;35622;52.008;5.426;2023-04-03T06:19:46;9.47;;;4.33;;
49730;SDS011;35622;52.008;5.426;2023-04-03T06:22:11;6.77;;;3.20;;
49730;SDS011;35622;52.008;5.426;2023-04-03T06:24:37;5.97;;;2.93;;
49730;SDS011;35622;52.008;5.426;2023-04-03T06:27:03;7.73;;;3.00;;
49730;SDS011;35622;52.008;5.426;2023-04-03T06:29:29;6.60;;;2.23;;
49730;SDS011;35622;52.008;5.426;2023-04-03T06:31:55;7.40;;;2.57;;
49730;SDS011;35622;52.008;5.426;2023-04-03T06:34:21;7.03;;;2.10;;
49730;SDS011;35622;52.008;5.426;2023-04-03T06:36:47;6.07;;;2.10;;
49730;SDS011;35622;52.008;5.426;2023-04-03T06:39:20;8.67;;;1.93;;
49730;SDS011;35622;52.008;5.426;2023-04-03T06:41:47;4.17;;;1.90;;
49730;SDS011;35622;52.008;5.426;2023-04-03T06:44:13;4.25;;;1.60;;
49730;SDS011;35622;52.008;5.426;2023-04-03T06:46:41;4.63;;;1.55;;
49730;SDS011;35622;52.008;5.426;2023-04-03T06:49:07;3.42;;;1.35;;
49730;SDS011;35622;52.008;5.426;2023-04-03T06:51:33;5.55;;;1.60;;
49730;SDS011;35622;52.008;5.426;2023-04-03T06:54:00;4.13;;;1.50;;
49730;SDS011;35622;52.008;5.426;2023-04-03T06:56:27;4.97;;;1.40;;
49730;SDS011;35622;52.008;5.426;2023-04-03T06:58:54;5.20;;;1.73;;
49730;SDS011;35622;52.008;5.426;2023-04-03T07:01:23;3.83;;;1.63;;
49730;SDS011;35622;52.008;5.426;2023-04-03T07:03:51;3.33;;;1.60;;
49730;SDS011;35622;52.008;5.426;2023-04-03T07:06:17;3.97;;;1.40;;
49730;SDS011;35622;52.008;5.426;2023-04-03T07:08:44;4.38;;;1.67;;
49730;SDS011;35622;52.008;5.426;2023-04-03T07:11:10;3.97;;;1.40;;
49730;SDS011;35622;52.008;5.426;2023-04-03T07:13:36;3.78;;;1.45;;
49730;SDS011;35622;52.008;5.426;2023-04-03T07:16:03;5.38;;;1.40;;
49730;SDS011;35622;52.008;5.426;2023-04-03T07:18:30;4.25;;;1.30;;
49730;SDS011;35622;52.008;5.426;2023-04-03T07:20:56;4.10;;;1.33;;
49730;SDS011;35622;52.008;5.426;2023-04-03T07:23:21;4.47;;;1.60;;
49730;SDS011;35622;52.008;5.426;2023-04-03T07:25:48;3.72;;;1.40;;
49730;SDS011;35622;52.008;5.426;2023-04-03T07:28:15;4.10;;;1.40;;
49730;SDS011;35622;52.008;5.426;2023-04-03T07:30:42;6.45;;;1.90;;
49730;SDS011;35622;52.008;5.426;2023-04-03T07:33:19;3.63;;;1.52;;
49730;SDS011;35622;52.008;5.426;2023-04-03T07:35:46;4.45;;;1.63;;
49730;SDS011;35622;52.008;5.426;2023-04-03T07:38:12;3.80;;;1.42;;
49730;SDS011;35622;52.008;5.426;2023-04-03T07:40:38;2.10;;;1.25;;
49730;SDS011;35622;52.008;5.426;2023-04-03T07:43:05;4.05;;;1.55;;
49730;SDS011;35622;52.008;5.426;2023-04-03T07:45:31;2.95;;;1.15;;
49730;SDS011;35622;52.008;5.426;2023-04-03T07:47:59;3.30;;;1.10;;
49730;SDS011;35622;52.008;5.426;2023-04-03T07:50:25;2.60;;;1.20;;
49730;SDS011;35622;52.008;5.426;2023-04-03T07:52:52;3.03;;;1.15;;
49730;SDS011;35622;52.008;5.426;2023-04-03T07:55:19;2.47;;;1.48;;
49730;SDS011;35622;52.008;5.426;2023-04-03T07:57:45;4.03;;;1.20;;
49730;SDS011;35622;52.008;5.426;2023-04-03T08:00:10;3.50;;;1.25;;
49730;SDS011;35622;52.008;5.426;2023-04-03T08:02:37;4.38;;;1.23;;
49730;SDS011;35622;52.008;5.426;2023-04-03T08:05:02;3.00;;;1.33;;
49730;SDS011;35622;52.008;5.426;2023-04-03T08:07:28;3.10;;;1.38;;
49730;SDS011;35622;52.008;5.426;2023-04-03T08:09:54;3.33;;;1.30;;
49730;SDS011;35622;52.008;5.426;2023-04-03T08:12:20;2.25;;;1.15;;
49730;SDS011;35622;52.008;5.426;2023-04-03T08:14:45;4.25;;;1.15;;
49730;SDS011;35622;52.008;5.426;2023-04-03T08:17:11;3.28;;;1.30;;
49730;SDS011;35622;52.008;5.426;2023-04-03T08:19:37;2.83;;;0.98;;
49730;SDS011;35622;52.008;5.426;2023-04-03T08:22:04;2.63;;;1.10;;
49730;SDS011;35622;52.008;5.426;2023-04-03T08:24:30;1.88;;;1.20;;
49730;SDS011;35622;52.008;5.426;2023-04-03T08:26:56;2.50;;;1.17;;
49730;SDS011;35622;52.008;5.426;2023-04-03T08:29:22;2.42;;;1.05;;
49730;SDS011;35622;52.008;5.426;2023-04-03T08:31:48;2.70;;;1.13;;
49730;SDS011;35622;52.008;5.426;2023-04-03T08:34:15;2.95;;;0.90;;
49730;SDS011;35622;52.008;5.426;2023-04-03T08:36:41;1.38;;;0.82;;
49730;SDS011;35622;52.008;5.426;2023-04-03T08:39:07;2.40;;;1.02;;
49730;SDS011;35622;52.008;5.426;2023-04-03T08:41:34;4.47;;;1.02;;
49730;SDS011;35622;52.008;5.426;2023-04-03T08:44:22;2.10;;;1.08;;
49730;SDS011;35622;52.008;5.426;2023-04-03T08:49:53;1.90;;;1.10;;
49730;SDS011;35622;52.008;5.426;2023-04-03T08:52:28;1.30;;;0.90;;
49730;SDS011;35622;52.008;5.426;2023-04-03T08:57:43;2.33;;;1.10;;
49730;SDS011;35622;52.008;5.426;2023-04-03T09:02:49;1.77;;;0.80;;
49730;SDS011;35622;52.008;5.426;2023-04-03T09:05:29;1.92;;;0.90;;
49730;SDS011;35622;52.008;5.426;2023-04-03T09:08:06;1.70;;;0.70;;
49730;SDS011;35622;52.008;5.426;2023-04-03T09:10:39;1.15;;;0.68;;
49730;SDS011;35622;52.008;5.426;2023-04-03T09:13:08;3.30;;;0.70;;
49730;SDS011;35622;52.008;5.426;2023-04-03T09:15:43;1.30;;;0.60;;
49730;SDS011;35622;52.008;5.426;2023-04-03T09:23:44;1.58;;;0.60;;
49730;SDS011;35622;52.008;5.426;2023-04-03T09:26:17;0.73;;;0.40;;
49730;SDS011;35622;52.008;5.426;2023-04-03T09:28:45;2.63;;;0.50;;
49730;SDS011;35622;52.008;5.426;2023-04-03T09:31:27;1.13;;;0.60;;
49730;SDS011;35622;52.008;5.426;2023-04-03T09:34:01;1.40;;;0.52;;
49730;SDS011;35622;52.008;5.426;2023-04-03T09:36:40;0.80;;;0.40;;
49730;SDS011;35622;52.008;5.426;2023-04-03T09:39:18;0.40;;;0.40;;
49730;SDS011;35622;52.008;5.426;2023-04-03T09:44:27;1.05;;;0.40;;
49730;SDS011;35622;52.008;5.426;2023-04-03T09:46:55;1.08;;;0.40;;
49730;SDS011;35622;52.008;5.426;2023-04-03T09:49:21;1.67;;;0.40;;
49730;SDS011;35622;52.008;5.426;2023-04-03T09:51:46;2.00;;;0.50;;
49730;SDS011;35622;52.008;5.426;2023-04-03T09:57:09;0.90;;;0.30;;
49730;SDS011;35622;52.008;5.426;2023-04-03T09:59:39;0.70;;;0.40;;
49730;SDS011;35622;52.008;5.426;2023-04-03T10:05:00;0.47;;;0.30;;
49730;SDS011;35622;52.008;5.426;2023-04-03T10:07:35;0.40;;;0.30;;
49730;SDS011;35622;52.008;5.426;2023-04-03T10:12:40;1.35;;;0.35;;
49730;SDS011;35622;52.008;5.426;2023-04-03T10:15:12;1.40;;;0.45;;
49730;SDS011;35622;52.008;5.426;2023-04-03T10:17:51;0.47;;;0.40;;
49730;SDS011;35622;52.008;5.426;2023-04-03T10:28:39;1.30;;;0.30;;
49730;SDS011;35622;52.008;5.426;2023-04-03T10:31:31;0.55;;;0.30;;
49730;SDS011;35622;52.008;5.426;2023-04-03T10:52:52;0.63;;;0.40;;
49730;SDS011;35622;52.008;5.426;2023-04-03T10:58:20;1.60;;;0.47;;
49730;SDS011;35622;52.008;5.426;2023-04-03T11:01:02;1.85;;;0.55;;
49730;SDS011;35622;52.008;5.426;2023-04-03T11:03:53;1.33;;;0.45;;
49730;SDS011;35622;52.008;5.426;2023-04-03T11:06:22;1.73;;;0.50;;
49730;SDS011;35622;52.008;5.426;2023-04-03T11:08:57;0.90;;;0.50;;
49730;SDS011;35622;52.008;5.426;2023-04-03T11:11:24;1.02;;;0.50;;
49730;SDS011;35622;52.008;5.426;2023-04-03T11:14:01;1.27;;;0.60;;
49730;SDS011;35622;52.008;5.426;2023-04-03T11:16:42;2.25;;;0.60;;
49730;SDS011;35622;52.008;5.426;2023-04-03T11:22:33;1.67;;;0.70;;
49730;SDS011;35622;52.008;5.426;2023-04-03T11:27:43;1.52;;;0.65;;
49730;SDS011;35622;52.008;5.426;2023-04-03T11:30:19;1.98;;;0.60;;
49730;SDS011;35622;52.008;5.426;2023-04-03T11:38:44;0.93;;;0.65;;
49730;SDS011;35622;52.008;5.426;2023-04-03T11:41:12;1.95;;;0.55;;
49730;SDS011;35622;52.008;5.426;2023-04-03T11:43:55;2.55;;;0.80;;
49730;SDS011;35622;52.008;5.426;2023-04-03T12:16:26;1.88;;;0.70;;
49730;SDS011;35622;52.008;5.426;2023-04-03T12:19:00;1.00;;;0.52;;
49730;SDS011;35622;52.008;5.426;2023-04-03T12:46:07;1.20;;;0.63;;
49730;SDS011;35622;52.008;5.426;2023-04-03T12:48:48;1.13;;;0.57;;
49730;SDS011;35622;52.008;5.426;2023-04-03T12:53:58;1.48;;;0.68;;
49730;SDS011;35622;52.008;5.426;2023-04-03T12:56:28;2.80;;;0.68;;
49730;SDS011;35622;52.008;5.426;2023-04-03T12:59:12;2.35;;;0.70;;
49730;SDS011;35622;52.008;5.426;2023-04-03T13:01:43;1.25;;;0.70;;
49730;SDS011;35622;52.008;5.426;2023-04-03T13:04:17;2.15;;;0.70;;
49730;SDS011;35622;52.008;5.426;2023-04-03T13:06:43;2.30;;;0.98;;
49730;SDS011;35622;52.008;5.426;2023-04-03T13:09:20;1.83;;;0.60;;
49730;SDS011;35622;52.008;5.426;2023-04-03T13:11:57;2.28;;;0.75;;
49730;SDS011;35622;52.008;5.426;2023-04-03T13:14:27;1.52;;;0.60;;
49730;SDS011;35622;52.008;5.426;2023-04-03T13:19:23;3.05;;;0.80;;
49730;SDS011;35622;52.008;5.426;2023-04-03T13:21:51;0.82;;;0.55;;
49730;SDS011;35622;52.008;5.426;2023-04-03T13:24:38;3.08;;;0.73;;
49730;SDS011;35622;52.008;5.426;2023-04-03T13:27:04;1.65;;;0.65;;
49730;SDS011;35622;52.008;5.426;2023-04-03T13:29:32;2.00;;;0.80;;
49730;SDS011;35622;52.008;5.426;2023-04-03T13:32:01;3.05;;;0.70;;
49730;SDS011;35622;52.008;5.426;2023-04-03T13:34:29;1.00;;;0.70;;
49730;SDS011;35622;52.008;5.426;2023-04-03T13:37:05;1.13;;;0.68;;
49730;SDS011;35622;52.008;5.426;2023-04-03T13:39:37;1.85;;;0.80;;
49730;SDS011;35622;52.008;5.426;2023-04-03T13:42:23;1.38;;;0.70;;
49730;SDS011;35622;52.008;5.426;2023-04-03T13:45:11;3.17;;;0.68;;
49730;SDS011;35622;52.008;5.426;2023-04-03T13:47:45;1.40;;;0.70;;
49730;SDS011;35622;52.008;5.426;2023-04-03T13:50:15;2.30;;;1.00;;
49730;SDS011;35622;52.008;5.426;2023-04-03T13:55:18;1.63;;;0.70;;
49730;SDS011;35622;52.008;5.426;2023-04-03T13:58:01;2.35;;;0.90;;
49730;SDS011;35622;52.008;5.426;2023-04-03T14:03:23;1.00;;;0.70;;
49730;SDS011;35622;52.008;5.426;2023-04-03T14:05:56;2.58;;;0.75;;
49730;SDS011;35622;52.008;5.426;2023-04-03T14:08:22;1.98;;;0.73;;
49730;SDS011;35622;52.008;5.426;2023-04-03T14:10:48;1.60;;;0.80;;
49730;SDS011;35622;52.008;5.426;2023-04-03T14:13:15;2.15;;;0.82;;
49730;SDS011;35622;52.008;5.426;2023-04-03T14:15:42;1.92;;;0.93;;
49730;SDS011;35622;52.008;5.426;2023-04-03T14:18:10;2.60;;;1.00;;
49730;SDS011;35622;52.008;5.426;2023-04-03T14:20:37;2.08;;;0.80;;
49730;SDS011;35622;52.008;5.426;2023-04-03T14:23:02;2.65;;;0.80;;
49730;SDS011;35622;52.008;5.426;2023-04-03T14:25:28;1.60;;;0.77;;
49730;SDS011;35622;52.008;5.426;2023-04-03T14:27:54;2.05;;;0.80;;
49730;SDS011;35622;52.008;5.426;2023-04-03T14:30:25;3.38;;;0.90;;
49730;SDS011;35622;52.008;5.426;2023-04-03T14:32:52;4.00;;;0.85;;
49730;SDS011;35622;52.008;5.426;2023-04-03T14:35:19;2.28;;;1.00;;
49730;SDS011;35622;52.008;5.426;2023-04-03T14:37:45;1.75;;;0.80;;
49730;SDS011;35622;52.008;5.426;2023-04-03T14:40:13;2.78;;;0.90;;
49730;SDS011;35622;52.008;5.426;2023-04-03T14:42:40;2.85;;;0.85;;
49730;SDS011;35622;52.008;5.426;2023-04-03T14:45:07;1.95;;;0.80;;
49730;SDS011;35622;52.008;5.426;2023-04-03T14:47:39;1.38;;;0.80;;
49730;SDS011;35622;52.008;5.426;2023-04-03T14:50:11;1.75;;;0.80;;
49730;SDS011;35622;52.008;5.426;2023-04-03T14:52:39;1.75;;;0.98;;
49730;SDS011;35622;52.008;5.426;2023-04-03T14:55:05;2.25;;;0.80;;
49730;SDS011;35622;52.008;5.426;2023-04-03T14:57:32;4.30;;;0.90;;
49730;SDS011;35622;52.008;5.426;2023-04-03T14:59:57;1.70;;;0.80;;
49730;SDS011;35622;52.008;5.426;2023-04-03T15:02:33;1.27;;;0.68;;
49730;SDS011;35622;52.008;5.426;2023-04-03T15:05:01;2.42;;;0.90;;
49730;SDS011;35622;52.008;5.426;2023-04-03T15:07:29;4.00;;;0.80;;
49730;SDS011;35622;52.008;5.426;2023-04-03T15:09:57;3.15;;;1.02;;
49730;SDS011;35622;52.008;5.426;2023-04-03T15:12:24;2.53;;;0.90;;
49730;SDS011;35622;52.008;5.426;2023-04-03T15:14:50;2.88;;;0.95;;
49730;SDS011;35622;52.008;5.426;2023-04-03T15:17:16;1.65;;;1.00;;
49730;SDS011;35622;52.008;5.426;2023-04-03T15:19:44;1.60;;;0.88;;
49730;SDS011;35622;52.008;5.426;2023-04-03T15:22:14;2.38;;;0.90;;
49730;SDS011;35622;52.008;5.426;2023-04-03T15:24:42;2.83;;;0.90;;
49730;SDS011;35622;52.008;5.426;2023-04-03T15:27:09;2.95;;;1.10;;
49730;SDS011;35622;52.008;5.426;2023-04-03T15:29:36;1.98;;;0.80;;
49730;SDS011;35622;52.008;5.426;2023-04-03T15:32:03;2.92;;;1.00;;
49730;SDS011;35622;52.008;5.426;2023-04-03T15:34:29;4.20;;;1.23;;
49730;SDS011;35622;52.008;5.426;2023-04-03T15:36:55;3.38;;;1.25;;
49730;SDS011;35622;52.008;5.426;2023-04-03T15:39:21;2.55;;;1.10;;
49730;SDS011;35622;52.008;5.426;2023-04-03T15:41:47;3.45;;;1.00;;
49730;SDS011;35622;52.008;5.426;2023-04-03T15:44:13;2.65;;;0.95;;
49730;SDS011;35622;52.008;5.426;2023-04-03T15:46:42;2.95;;;1.08;;
49730;SDS011;35622;52.008;5.426;2023-04-03T15:49:08;2.25;;;0.93;;
49730;SDS011;35622;52.008;5.426;2023-04-03T15:51:33;3.13;;;1.00;;
49730;SDS011;35622;52.008;5.426;2023-04-03T15:54:00;2.08;;;1.05;;
49730;SDS011;35622;52.008;5.426;2023-04-03T15:56:25;4.47;;;1.33;;
49730;SDS011;35622;52.008;5.426;2023-04-03T15:58:51;2.58;;;1.02;;
49730;SDS011;35622;52.008;5.426;2023-04-03T16:01:17;3.15;;;1.40;;
49730;SDS011;35622;52.008;5.426;2023-04-03T16:03:42;3.15;;;1.10;;
49730;SDS011;35622;52.008;5.426;2023-04-03T16:06:13;8.00;;;3.30;;
49730;SDS011;35622;52.008;5.426;2023-04-03T16:08:40;3.00;;;0.98;;
49730;SDS011;35622;52.008;5.426;2023-04-03T16:11:07;3.45;;;1.42;;
49730;SDS011;35622;52.008;5.426;2023-04-03T16:13:32;2.22;;;1.05;;
49730;SDS011;35622;52.008;5.426;2023-04-03T16:15:58;3.42;;;1.13;;
49730;SDS011;35622;52.008;5.426;2023-04-03T16:18:25;2.90;;;1.20;;
49730;SDS011;35622;52.008;5.426;2023-04-03T16:20:51;3.15;;;1.08;;
49730;SDS011;35622;52.008;5.426;2023-04-03T16:23:17;2.53;;;1.27;;
49730;SDS011;35622;52.008;5.426;2023-04-03T16:25:42;3.72;;;1.30;;
49730;SDS011;35622;52.008;5.426;2023-04-03T16:28:11;3.47;;;1.10;;
49730;SDS011;35622;52.008;5.426;2023-04-03T16:30:37;3.38;;;1.20;;
49730;SDS011;35622;52.008;5.426;2023-04-03T16:33:08;4.30;;;1.10;;
49730;SDS011;35622;52.008;5.426;2023-04-03T16:35:34;4.78;;;1.20;;
49730;SDS011;35622;52.008;5.426;2023-04-03T16:38:00;2.78;;;1.10;;
49730;SDS011;35622;52.008;5.426;2023-04-03T16:40:25;3.42;;;1.20;;
49730;SDS011;35622;52.008;5.426;2023-04-03T16:42:51;4.40;;;1.00;;
49730;SDS011;35622;52.008;5.426;2023-04-03T16:45:19;4.70;;;1.88;;
49730;SDS011;35622;52.008;5.426;2023-04-03T16:47:45;6.35;;;3.08;;
49730;SDS011;35622;52.008;5.426;2023-04-03T16:50:10;2.63;;;1.00;;
49730;SDS011;35622;52.008;5.426;2023-04-03T16:52:36;2.58;;;1.10;;
49730;SDS011;35622;52.008;5.426;2023-04-03T16:55:02;3.10;;;1.10;;
49730;SDS011;35622;52.008;5.426;2023-04-03T16:57:28;3.90;;;1.30;;
49730;SDS011;35622;52.008;5.426;2023-04-03T16:59:53;2.00;;;1.00;;
49730;SDS011;35622;52.008;5.426;2023-04-03T17:02:20;2.90;;;1.10;;
49730;SDS011;35622;52.008;5.426;2023-04-03T17:04:49;2.25;;;1.13;;
49730;SDS011;35622;52.008;5.426;2023-04-03T17:07:16;3.13;;;1.20;;
49730;SDS011;35622;52.008;5.426;2023-04-03T17:09:42;2.58;;;1.00;;
49730;SDS011;35622;52.008;5.426;2023-04-03T17:12:07;3.00;;;1.23;;